createdAt,value
2023-08-05T00:01:34.916Z,6.60
2023-08-05T00:04:01.434Z,4.22
2023-08-05T00:06:27.853Z,5.05
2023-08-05T00:08:54.512Z,5.47
2023-08-05T00:11:20.932Z,5.07
2023-08-05T00:13:47.323Z,3.30
2023-08-05T00:16:15.252Z,5.10
2023-08-05T00:18:41.765Z,4.43
2023-08-05T00:21:08.160Z,4.28
2023-08-05T00:23:34.579Z,5.70
2023-08-05T00:26:00.983Z,5.32
2023-08-05T00:28:27.394Z,7.45
2023-08-05T00:30:53.780Z,4.78
2023-08-05T00:33:20.244Z,4.95
2023-08-05T00:35:46.637Z,4.43
2023-08-05T00:38:13.109Z,6.18
2023-08-05T00:40:39.504Z,4.70
2023-08-05T00:43:05.951Z,6.13
2023-08-05T00:45:32.554Z,5.88
2023-08-05T00:47:59.228Z,5.43
2023-08-05T00:50:27.828Z,6.03
2023-08-05T00:52:54.251Z,4.88
2023-08-05T00:55:21.328Z,6.93
2023-08-05T00:57:48.217Z,7.50
2023-08-05T01:00:14.659Z,8.43
2023-08-05T01:02:41.190Z,7.00
2023-08-05T01:05:08.107Z,4.80
2023-08-05T01:07:37.168Z,7.43
2023-08-05T01:10:05.333Z,5.55
2023-08-05T01:12:31.778Z,5.33
2023-08-05T01:14:58.187Z,5.63
2023-08-05T01:17:24.606Z,8.20
2023-08-05T01:19:51.673Z,7.80
2023-08-05T01:22:55.084Z,8.32
2023-08-05T01:25:30.066Z,8.07
2023-08-05T01:27:58.676Z,7.85
2023-08-05T01:30:26.153Z,9.32
2023-08-05T01:32:53.632Z,9.38
2023-08-05T01:35:22.760Z,11.07
2023-08-05T01:37:49.385Z,8.07
2023-08-05T01:40:16.100Z,10.50
2023-08-05T01:42:42.544Z,12.35
2023-08-05T01:45:09.132Z,11.52
2023-08-05T01:47:35.584Z,12.52
2023-08-05T01:50:02.045Z,10.50
2023-08-05T01:52:28.506Z,11.45
2023-08-05T01:54:54.896Z,10.77
2023-08-05T01:57:21.300Z,11.15
2023-08-05T01:59:47.689Z,13.05
2023-08-05T02:02:14.167Z,10.87
2023-08-05T02:04:40.629Z,9.80
2023-08-05T02:07:07.147Z,12.25
2023-08-05T02:09:33.536Z,10.77
2023-08-05T02:11:59.934Z,10.85
2023-08-05T02:14:26.363Z,9.20
2023-08-05T02:16:53.081Z,7.90
2023-08-05T02:19:19.720Z,8.63
2023-08-05T02:21:46.123Z,8.45
2023-08-05T02:24:12.562Z,10.07
2023-08-05T02:26:39.527Z,11.60
2023-08-05T02:29:05.984Z,11.35
2023-08-05T02:31:32.429Z,10.93
2023-08-05T02:33:58.827Z,11.07
2023-08-05T02:36:25.343Z,11.43
2023-08-05T02:38:51.881Z,9.20
2023-08-05T02:41:18.535Z,10.32
2023-08-05T02:43:44.924Z,11.25
2023-08-05T02:46:11.393Z,12.48
2023-08-05T02:48:37.809Z,13.13
2023-08-05T02:51:24.230Z,9.53
2023-08-05T02:53:50.630Z,14.32
2023-08-05T02:56:17.104Z,10.75
2023-08-05T02:58:43.579Z,15.93
2023-08-05T03:01:10.334Z,11.90
2023-08-05T03:03:37.913Z,10.77
2023-08-05T03:06:04.575Z,13.68
2023-08-05T03:08:31.060Z,11.88
2023-08-05T03:11:02.013Z,12.23
2023-08-05T03:13:28.440Z,13.13
2023-08-05T03:15:55.356Z,12.87
2023-08-05T03:18:22.139Z,13.07
2023-08-05T03:20:49.046Z,12.73
2023-08-05T03:23:15.480Z,11.95
2023-08-05T03:25:41.870Z,12.18
2023-08-05T03:28:08.278Z,17.17
2023-08-05T03:30:34.745Z,12.55
2023-08-05T03:33:01.190Z,14.88
2023-08-05T03:35:27.692Z,18.60
2023-08-05T03:37:54.129Z,20.05
2023-08-05T03:40:20.538Z,17.47
2023-08-05T03:42:47.672Z,16.00
2023-08-05T03:45:14.103Z,15.77
2023-08-05T03:47:40.581Z,17.52
2023-08-05T03:50:09.244Z,17.95
2023-08-05T03:52:36.406Z,18.73
2023-08-05T03:55:03.995Z,16.80
2023-08-05T03:57:30.427Z,20.63
2023-08-05T03:59:57.661Z,18.25
2023-08-05T04:02:24.107Z,23.92
2023-08-05T04:04:51.061Z,21.00
2023-08-05T04:07:20.570Z,24.55
2023-08-05T04:09:50.251Z,18.30
2023-08-05T04:12:16.670Z,18.75
2023-08-05T04:14:44.918Z,23.13
2023-08-05T04:17:13.309Z,26.67
2023-08-05T04:19:39.839Z,30.52
2023-08-05T04:22:06.533Z,32.28
2023-08-05T04:24:34.019Z,24.63
2023-08-05T04:27:00.712Z,32.15
2023-08-05T04:29:27.250Z,26.30
2023-08-05T04:31:54.410Z,24.17
2023-08-05T04:34:21.549Z,27.50
2023-08-05T04:36:51.327Z,36.10
2023-08-05T04:39:21.340Z,33.78
2023-08-05T04:41:47.830Z,28.37
2023-08-05T04:44:14.376Z,27.17
2023-08-05T04:46:40.906Z,28.63
2023-08-05T04:49:09.747Z,30.33
2023-08-05T04:51:36.797Z,23.88
2023-08-05T04:54:03.965Z,25.83
2023-08-05T04:56:30.563Z,20.20
2023-08-05T04:58:57.308Z,23.98
2023-08-05T05:01:23.774Z,22.02
2023-08-05T05:03:52.378Z,21.10
2023-08-05T05:06:19.215Z,16.57
2023-08-05T05:08:45.797Z,14.45
2023-08-05T05:11:12.261Z,16.95
2023-08-05T05:13:39.745Z,22.23
2023-08-05T05:16:06.244Z,16.70
2023-08-05T05:18:32.699Z,17.37
2023-08-05T05:20:59.125Z,16.45
2023-08-05T05:23:25.563Z,17.10
2023-08-05T05:25:51.987Z,17.77
2023-08-05T05:28:18.417Z,14.55
2023-08-05T05:30:44.888Z,16.53
2023-08-05T05:33:11.422Z,18.08
2023-08-05T05:35:37.906Z,17.83
2023-08-05T05:38:04.408Z,18.70
2023-08-05T05:40:30.919Z,17.50
2023-08-05T05:42:57.303Z,16.83
2023-08-05T05:45:23.747Z,19.58
2023-08-05T05:47:50.261Z,18.65
2023-08-05T05:50:17.651Z,20.40
2023-08-05T05:52:44.137Z,18.50
2023-08-05T05:55:10.525Z,21.87
2023-08-05T05:57:36.989Z,20.38
2023-08-05T06:00:05.998Z,19.80
2023-08-05T06:02:32.985Z,17.48
2023-08-05T06:04:59.503Z,17.98
2023-08-05T06:07:25.943Z,20.40
2023-08-05T06:09:52.392Z,17.90
2023-08-05T06:12:19.559Z,15.98
2023-08-05T06:14:46.005Z,18.02
2023-08-05T06:17:12.446Z,18.00
2023-08-05T06:19:38.822Z,17.30
2023-08-05T06:22:05.827Z,16.75
2023-08-05T06:24:32.294Z,17.52
2023-08-05T06:26:58.706Z,20.90
2023-08-05T06:29:25.079Z,19.10
2023-08-05T06:31:51.863Z,18.67
2023-08-05T06:34:18.868Z,16.88
2023-08-05T06:36:45.280Z,20.05
2023-08-05T06:39:11.797Z,18.05
2023-08-05T06:41:38.200Z,22.98
2023-08-05T06:44:04.737Z,17.80
2023-08-05T06:46:31.148Z,19.95
2023-08-05T06:48:58.756Z,20.08
2023-08-05T06:51:25.181Z,19.73
2023-08-05T06:53:51.612Z,20.85
2023-08-05T06:56:18.061Z,20.07
2023-08-05T06:58:44.589Z,20.42
2023-08-05T07:01:11.094Z,17.88
2023-08-05T07:03:37.542Z,17.30
2023-08-05T07:06:03.957Z,15.30
2023-08-05T07:08:30.423Z,14.93
2023-08-05T07:10:58.027Z,14.85
2023-08-05T07:13:27.924Z,15.38
2023-08-05T07:16:04.336Z,14.15
2023-08-05T07:18:31.864Z,13.02
2023-08-05T07:20:58.611Z,11.27
2023-08-05T07:23:25.812Z,12.10
2023-08-05T07:25:52.357Z,12.75
2023-08-05T07:28:18.884Z,12.80
2023-08-05T07:30:45.341Z,13.00
2023-08-05T07:33:12.962Z,12.50
2023-08-05T07:35:39.410Z,11.50
2023-08-05T07:38:10.692Z,8.05
2023-08-05T07:40:40.173Z,8.88
2023-08-05T07:43:07.259Z,9.52
2023-08-05T07:45:36.898Z,8.97
2023-08-05T07:48:07.763Z,10.43
2023-08-05T07:50:35.074Z,6.95
2023-08-05T07:53:01.573Z,7.03
2023-08-05T07:55:31.365Z,5.75
2023-08-05T07:57:57.834Z,7.77
2023-08-05T08:00:24.530Z,8.43
2023-08-05T08:02:52.104Z,9.25
2023-08-05T08:05:19.041Z,5.97
2023-08-05T08:07:48.109Z,8.65
2023-08-05T08:10:15.578Z,6.17
2023-08-05T08:12:42.937Z,7.90
2023-08-05T08:15:09.801Z,4.93
2023-08-05T08:17:38.400Z,7.78
2023-08-05T08:20:07.764Z,6.53
2023-08-05T08:22:34.271Z,8.27
2023-08-05T08:25:00.731Z,7.00
2023-08-05T08:27:27.163Z,8.32
2023-08-05T08:29:53.597Z,7.60
2023-08-05T08:32:20.092Z,7.10
2023-08-05T08:34:46.540Z,7.83
2023-08-05T08:37:12.975Z,8.70
2023-08-05T08:39:39.373Z,7.78
2023-08-05T08:42:07.192Z,8.27
2023-08-05T08:44:35.332Z,7.78
2023-08-05T08:47:01.896Z,6.27
2023-08-05T08:49:31.820Z,6.55
2023-08-05T08:51:58.355Z,6.68
2023-08-05T08:54:27.931Z,5.43
2023-08-05T08:56:54.529Z,6.18
2023-08-05T08:59:20.958Z,7.80
2023-08-05T09:01:49.166Z,5.50
2023-08-05T09:04:16.382Z,4.97
2023-08-05T09:06:45.906Z,4.78
2023-08-05T09:09:12.746Z,5.85
2023-08-05T09:11:39.201Z,6.37
2023-08-05T09:14:05.721Z,4.75
2023-08-05T09:16:32.199Z,5.25
2023-08-05T09:19:00.076Z,4.47
2023-08-05T09:21:27.947Z,4.63
2023-08-05T09:23:56.062Z,6.33
2023-08-05T09:26:33.606Z,4.30
2023-08-05T09:29:00.794Z,5.57
2023-08-05T09:31:27.273Z,6.03
2023-08-05T09:33:53.792Z,5.70
2023-08-05T09:36:23.745Z,4.53
2023-08-05T09:39:07.127Z,4.50
2023-08-05T09:41:36.216Z,4.35
2023-08-05T09:44:02.663Z,3.50
2023-08-05T09:46:40.853Z,3.38
2023-08-05T09:49:09.610Z,4.80
2023-08-05T09:51:37.103Z,4.50
2023-08-05T09:54:06.248Z,4.10
2023-08-05T09:56:33.149Z,5.70
2023-08-05T09:59:00.678Z,5.57
2023-08-05T10:01:27.338Z,5.53
2023-08-05T10:03:59.192Z,5.90
2023-08-05T10:06:25.993Z,4.75
2023-08-05T10:08:53.668Z,6.07
2023-08-05T10:11:20.618Z,6.60
2023-08-05T10:13:49.834Z,4.47
2023-08-05T10:16:16.676Z,5.18
2023-08-05T10:18:43.194Z,4.10
2023-08-05T10:21:10.459Z,4.45
2023-08-05T10:23:37.425Z,4.20
2023-08-05T10:26:06.026Z,5.07
2023-08-05T10:28:35.561Z,5.22
2023-08-05T10:31:06.979Z,4.00
2023-08-05T10:34:08.015Z,3.85
2023-08-05T10:36:49.483Z,4.75
2023-08-05T10:39:37.445Z,3.57
2023-08-05T10:42:28.642Z,3.60
2023-08-05T10:44:55.710Z,3.30
2023-08-05T10:47:23.390Z,4.18
2023-08-05T10:49:56.310Z,4.25
2023-08-05T10:52:24.486Z,5.70
2023-08-05T10:54:52.888Z,4.45
2023-08-05T10:57:39.517Z,3.35
2023-08-05T11:00:09.085Z,3.97
2023-08-05T11:02:39.104Z,4.70
2023-08-05T11:05:10.102Z,3.50
2023-08-05T11:07:41.312Z,3.25
2023-08-05T11:10:08.922Z,4.40
2023-08-05T11:12:35.518Z,3.55
2023-08-05T11:15:02.187Z,3.55
2023-08-05T11:17:29.029Z,4.27
2023-08-05T11:19:57.412Z,4.53
2023-08-05T11:22:28.854Z,3.70
2023-08-05T11:25:04.189Z,5.03
2023-08-05T11:27:34.806Z,3.17
2023-08-05T11:30:14.614Z,5.00
2023-08-05T11:32:58.569Z,5.13
2023-08-05T11:35:25.932Z,6.95
2023-08-05T11:37:53.248Z,3.25
2023-08-05T11:40:20.086Z,3.17
2023-08-05T11:42:46.783Z,3.60
2023-08-05T11:45:14.676Z,3.45
2023-08-05T11:47:42.454Z,3.22
2023-08-05T11:50:10.435Z,3.42
2023-08-05T11:52:37.520Z,3.28
2023-08-05T11:55:08.458Z,4.23
2023-08-05T11:57:35.018Z,2.78
2023-08-05T12:00:06.396Z,2.90
2023-08-05T12:02:35.290Z,3.40
2023-08-05T12:05:05.189Z,3.95
2023-08-05T12:07:33.188Z,3.70
2023-08-05T12:10:30.931Z,3.45
2023-08-05T12:12:57.309Z,3.97
2023-08-05T12:15:27.902Z,3.42
2023-08-05T12:18:07.130Z,4.50
2023-08-05T12:20:38.116Z,2.77
2023-08-05T12:23:06.786Z,3.22
2023-08-05T12:25:33.877Z,3.03
2023-08-05T12:28:03.699Z,3.20
2023-08-05T12:30:32.554Z,3.15
2023-08-05T12:32:59.448Z,4.23
2023-08-05T12:35:26.893Z,3.55
2023-08-05T12:37:53.328Z,4.07
2023-08-05T12:40:19.779Z,3.28
2023-08-05T12:42:46.222Z,4.15
2023-08-05T12:45:12.642Z,4.10
2023-08-05T12:47:40.172Z,3.80
2023-08-05T12:50:08.216Z,3.25
2023-08-05T12:52:34.865Z,2.70
2023-08-05T12:55:01.371Z,3.08
2023-08-05T12:57:28.028Z,3.20
2023-08-05T12:59:54.442Z,3.58
2023-08-05T13:02:24.574Z,3.60
2023-08-05T13:04:53.272Z,3.92
2023-08-05T13:07:20.423Z,5.45
2023-08-05T13:09:47.320Z,3.37
2023-08-05T13:12:14.539Z,3.50
2023-08-05T13:14:41.284Z,4.75
2023-08-05T13:17:07.809Z,3.38
2023-08-05T13:19:34.234Z,5.65
2023-08-05T13:22:00.898Z,5.60
2023-08-05T13:24:27.708Z,4.63
2023-08-05T13:26:54.215Z,4.20
2023-08-05T13:29:20.640Z,5.13
2023-08-05T13:31:47.113Z,4.95
2023-08-05T13:34:13.513Z,3.60
2023-08-05T13:36:39.954Z,4.03
2023-08-05T13:39:06.394Z,3.50
2023-08-05T13:41:32.853Z,4.65
2023-08-05T13:43:59.353Z,3.70
2023-08-05T13:46:25.829Z,2.90
2023-08-05T13:48:52.414Z,3.45
2023-08-05T13:51:18.891Z,3.17
2023-08-05T13:53:45.365Z,3.65
2023-08-05T13:56:11.856Z,3.00
2023-08-05T13:58:38.298Z,2.67
2023-08-05T14:01:05.784Z,2.10
2023-08-05T14:03:32.355Z,4.00
2023-08-05T14:05:59.747Z,3.10
2023-08-05T14:08:30.032Z,3.20
2023-08-05T14:10:56.617Z,4.03
2023-08-05T14:13:23.385Z,5.38
2023-08-05T14:15:53.847Z,3.28
2023-08-05T14:18:23.441Z,2.90
2023-08-05T14:20:50.341Z,4.65
2023-08-05T14:23:17.327Z,4.13
2023-08-05T14:25:44.503Z,3.05
2023-08-05T14:28:11.966Z,2.95
2023-08-05T14:30:42.113Z,3.15
2023-08-05T14:33:09.159Z,3.90
2023-08-05T14:35:36.864Z,3.07
2023-08-05T14:38:04.872Z,3.50
2023-08-05T14:40:35.993Z,4.68
2023-08-05T14:43:03.603Z,3.85
2023-08-05T14:45:30.768Z,2.30
2023-08-05T14:47:57.598Z,2.33
2023-08-05T14:50:24.022Z,3.63
2023-08-05T14:52:50.627Z,2.60
2023-08-05T14:55:17.201Z,3.75
2023-08-05T14:57:43.756Z,2.97
2023-08-05T15:00:11.755Z,2.80
2023-08-05T15:02:38.789Z,2.50
2023-08-05T15:05:05.841Z,3.08
2023-08-05T15:07:32.247Z,3.25
2023-08-05T15:09:58.706Z,2.78
2023-08-05T15:12:25.111Z,3.40
2023-08-05T15:14:51.831Z,2.78
2023-08-05T15:17:18.341Z,3.65
2023-08-05T15:19:44.754Z,4.93
2023-08-05T15:22:12.596Z,2.95
2023-08-05T15:24:39.011Z,2.40
2023-08-05T15:27:05.842Z,2.97
2023-08-05T15:29:32.270Z,2.65
2023-08-05T15:31:59.308Z,2.72
2023-08-05T15:34:25.962Z,3.58
2023-08-05T15:36:52.358Z,2.03
2023-08-05T15:39:18.770Z,3.40
2023-08-05T15:41:45.277Z,4.30
2023-08-05T15:44:11.728Z,2.50
2023-08-05T15:46:38.141Z,2.75
2023-08-05T15:49:04.583Z,2.53
2023-08-05T15:51:31.011Z,2.35
2023-08-05T15:53:57.554Z,3.67
2023-08-05T15:56:24.054Z,2.70
2023-08-05T15:58:50.529Z,2.70
2023-08-05T16:01:17.056Z,2.40
2023-08-05T16:03:43.510Z,2.30
2023-08-05T16:06:11.715Z,2.25
2023-08-05T16:08:38.953Z,2.70
2023-08-05T16:11:08.114Z,3.05
2023-08-05T16:13:35.593Z,3.10
2023-08-05T16:16:05.454Z,2.30
2023-08-05T16:18:31.956Z,2.40
2023-08-05T16:20:58.371Z,3.13
2023-08-05T16:23:27.265Z,4.85
2023-08-05T16:25:54.621Z,3.70
2023-08-05T16:28:20.994Z,7.45
2023-08-05T16:30:52.795Z,4.95
2023-08-05T16:33:19.252Z,3.00
2023-08-05T16:35:45.662Z,2.67
2023-08-05T16:38:12.044Z,3.63
2023-08-05T16:40:38.439Z,3.05
2023-08-05T16:43:04.832Z,2.80
2023-08-05T16:45:31.259Z,2.60
2023-08-05T16:47:57.721Z,3.65
2023-08-05T16:50:24.232Z,2.83
2023-08-05T16:52:50.810Z,2.47
2023-08-05T16:55:17.223Z,3.72
2023-08-05T16:57:43.684Z,2.28
2023-08-05T17:00:10.472Z,3.47
2023-08-05T17:02:37.537Z,2.57
2023-08-05T17:05:06.424Z,2.53
2023-08-05T17:07:33.902Z,2.70
2023-08-05T17:10:00.296Z,3.58
2023-08-05T17:12:26.795Z,4.15
2023-08-05T17:14:53.176Z,3.37
2023-08-05T17:17:19.597Z,4.20
2023-08-05T17:19:46.115Z,6.00
2023-08-05T17:22:12.589Z,3.05
2023-08-05T17:24:39.165Z,3.67
2023-08-05T17:27:06.693Z,4.60
2023-08-05T17:29:33.204Z,2.60
2023-08-05T17:31:59.613Z,5.10
2023-08-05T17:34:26.030Z,3.72
2023-08-05T17:36:52.426Z,3.80
2023-08-05T17:39:18.812Z,3.30
2023-08-05T17:41:45.212Z,2.78
2023-08-05T17:44:11.633Z,3.55
2023-08-05T17:46:38.103Z,2.50
2023-08-05T17:49:05.121Z,3.17
2023-08-05T17:51:31.529Z,2.30
2023-08-05T17:53:58.004Z,3.17
2023-08-05T17:56:24.406Z,2.67
2023-08-05T17:58:52.526Z,2.08
2023-08-05T18:01:19.703Z,3.10
2023-08-05T18:03:46.411Z,3.43
2023-08-05T18:06:21.600Z,2.13
2023-08-05T18:08:49.014Z,4.18
2023-08-05T18:11:15.643Z,2.58
2023-08-05T18:13:45.412Z,2.72
2023-08-05T18:16:12.031Z,2.43
2023-08-05T18:18:39.194Z,2.42
2023-08-05T18:21:05.640Z,5.40
2023-08-05T18:23:32.050Z,3.28
2023-08-05T18:25:58.444Z,2.40
2023-08-05T18:28:24.897Z,2.23
2023-08-05T18:30:52.976Z,2.63
2023-08-05T18:33:19.428Z,3.10
2023-08-05T18:35:49.774Z,2.45
2023-08-05T18:38:17.082Z,2.38
2023-08-05T18:40:43.898Z,2.20
2023-08-05T18:43:10.599Z,2.50
2023-08-05T18:45:37.328Z,3.10
2023-08-05T18:48:04.253Z,3.15
2023-08-05T18:50:31.965Z,4.00
2023-08-05T18:52:58.902Z,5.43
2023-08-05T18:55:25.358Z,3.47
2023-08-05T18:57:51.778Z,4.63
2023-08-05T19:00:18.204Z,3.80
2023-08-05T19:02:44.641Z,3.75
2023-08-05T19:05:11.177Z,2.60
2023-08-05T19:07:37.592Z,3.05
2023-08-05T19:10:05.598Z,3.58
2023-08-05T19:12:32.177Z,2.78
2023-08-05T19:14:58.571Z,2.28
2023-08-05T19:17:25.252Z,2.67
2023-08-05T19:19:51.693Z,4.38
2023-08-05T19:22:18.090Z,3.65
2023-08-05T19:24:44.504Z,3.78
2023-08-05T19:27:10.933Z,3.63
2023-08-05T19:29:37.534Z,3.07
2023-08-05T19:32:04.108Z,2.45
2023-08-05T19:34:30.569Z,3.22
2023-08-05T19:36:56.997Z,4.10
2023-08-05T19:39:23.899Z,4.10
2023-08-05T19:41:50.828Z,4.00
2023-08-05T19:44:17.387Z,5.28
2023-08-05T19:46:43.845Z,3.28
2023-08-05T19:49:10.700Z,3.83
2023-08-05T19:51:37.754Z,3.67
2023-08-05T19:54:04.285Z,4.47
2023-08-05T19:56:30.753Z,3.40
2023-08-05T19:58:57.165Z,3.85
2023-08-05T20:01:23.607Z,2.53
2023-08-05T20:03:50.055Z,3.83
2023-08-05T20:06:16.472Z,3.67
2023-08-05T20:08:42.851Z,2.90
2023-08-05T20:11:09.439Z,3.20
2023-08-05T20:13:35.837Z,3.50
2023-08-05T20:16:02.891Z,3.70
2023-08-05T20:18:29.355Z,4.03
2023-08-05T20:20:55.839Z,3.03
2023-08-05T20:23:22.353Z,3.97
2023-08-05T20:25:49.481Z,3.42
2023-08-05T20:28:16.265Z,3.00
2023-08-05T20:30:42.839Z,3.17
2023-08-05T20:33:09.461Z,3.50
2023-08-05T20:35:36.507Z,3.08
2023-08-05T20:38:02.937Z,2.70
2023-08-05T20:40:29.485Z,3.35
2023-08-05T20:42:55.946Z,3.43
2023-08-05T20:45:22.359Z,2.58
2023-08-05T20:47:49.733Z,3.33
2023-08-05T20:50:16.306Z,4.10
2023-08-05T20:52:43.526Z,4.18
2023-08-05T20:55:10.036Z,4.10
2023-08-05T20:57:36.670Z,6.35
2023-08-05T21:00:05.440Z,4.28
2023-08-05T21:02:31.872Z,2.72
2023-08-05T21:05:00.224Z,2.90
2023-08-05T21:07:26.633Z,3.97
2023-08-05T21:09:53.022Z,3.97
2023-08-05T21:12:19.733Z,4.13
2023-08-05T21:14:46.431Z,4.82
2023-08-05T21:17:13.248Z,3.78
2023-08-05T21:19:39.883Z,3.90
2023-08-05T21:22:07.253Z,4.40
2023-08-05T21:24:35.576Z,3.88
2023-08-05T21:27:02.299Z,5.13
2023-08-05T21:29:28.885Z,4.53
2023-08-05T21:31:55.528Z,4.23
2023-08-05T21:34:22.113Z,3.10
2023-08-05T21:36:48.611Z,3.17
2023-08-05T21:39:15.197Z,3.33
2023-08-05T21:41:41.608Z,4.22
2023-08-05T21:44:08.054Z,3.87
2023-08-05T21:46:34.543Z,3.35
2023-08-05T21:49:00.973Z,3.20
2023-08-05T21:51:27.410Z,4.25
2023-08-05T21:53:53.863Z,4.95
2023-08-05T21:56:20.258Z,8.83
2023-08-05T21:58:46.672Z,3.97
2023-08-05T22:01:13.119Z,6.65
2023-08-05T22:03:39.722Z,3.92
2023-08-05T22:06:07.679Z,4.55
2023-08-05T22:08:35.348Z,4.10
2023-08-05T22:11:06.791Z,3.72
2023-08-05T22:13:33.265Z,3.80
2023-08-05T22:16:00.418Z,3.60
2023-08-05T22:18:26.881Z,6.13
2023-08-05T22:20:53.799Z,4.63
2023-08-05T22:23:20.435Z,4.88
2023-08-05T22:25:46.907Z,4.07
2023-08-05T22:28:13.304Z,4.25
2023-08-05T22:30:39.810Z,4.05
2023-08-05T22:33:06.286Z,4.67
2023-08-05T22:35:32.788Z,6.70
2023-08-05T22:37:59.228Z,3.97
2023-08-05T22:40:25.677Z,5.85
2023-08-05T22:42:52.118Z,4.75
2023-08-05T22:45:18.530Z,3.97
2023-08-05T22:47:45.052Z,4.32
2023-08-05T22:50:11.497Z,5.25
2023-08-05T22:52:39.587Z,4.38
2023-08-05T22:55:06.977Z,4.15
2023-08-05T22:57:33.404Z,4.87
2023-08-05T22:59:59.815Z,3.80
2023-08-05T23:02:26.271Z,4.57
2023-08-05T23:04:53.665Z,7.30
2023-08-05T23:07:20.079Z,4.15
2023-08-05T23:09:46.471Z,4.13
2023-08-05T23:12:12.863Z,4.93
2023-08-05T23:14:39.267Z,6.07
2023-08-05T23:17:05.750Z,6.00
2023-08-05T23:19:32.172Z,4.72
2023-08-05T23:21:58.554Z,4.50
2023-08-05T23:24:24.953Z,4.72
2023-08-05T23:26:51.366Z,5.60
2023-08-05T23:29:17.769Z,5.60
2023-08-05T23:31:44.175Z,5.40
2023-08-05T23:34:10.618Z,4.83
2023-08-05T23:36:37.091Z,5.07
2023-08-05T23:39:04.247Z,4.57
2023-08-05T23:41:30.668Z,5.50
2023-08-05T23:43:57.077Z,5.60
2023-08-05T23:46:23.696Z,4.53
2023-08-05T23:48:50.126Z,4.60
2023-08-05T23:51:16.503Z,5.38
2023-08-05T23:53:42.885Z,5.28
2023-08-05T23:56:09.320Z,7.35
2023-08-05T23:58:35.853Z,5.63
